Jackson, South Carolina
Current Conditions -  °F | °C
As of 5:53 PM on Thursday 27 Nov 2014 (Local Time) from KAGS Reporting Station
Clear Clear  
Wind Chill: 42°   Ceiling: Unl
Heat Index: 48°   Visibility: 10mi
Dew Point: 27°   Wind: 14mph
Humidity: 44%   Direction: 310°NW
Pressure: 30.25"   Gusts: NA
Location:  33.33°N, 81.79°W
Report Text: KAGS 272253Z 31012KT 10SM CLR 09/M03 A3025 RMK AO2 SLP243 T00891028
Loading
Personal Weather Stations






























Interactive Weather Map New forecast layout! Learn more

10-Day Weather Forecast

Advertisements
Track Severe Weather on mobile